Time;durP1;ratioP1;P1;durP2;ratioP2;P2;SDS_P1;SDS_P2;PMS_P1;PMS_P2;Temp;Humidity;BMP_temperature;BMP_pressure;BME280_temperature;BME280_humidity;BME280_pressure;Samples;Min_cycle;Max_cycle;Signal;HPM_P1;HPM_P2
2023/03/12 00:00:30;;;;;;;7.83;4.80;;;-0.70;99.90;;;;;;7805231;28;20189;-91
2023/03/12 00:04:16;;;;;;;7.37;4.10;;;-0.70;99.90;;;;;;7805166;28;20206;-92
2023/03/12 00:08:01;;;;;;;7.90;4.20;;;-0.70;99.90;;;;;;7806013;28;20285;-91
2023/03/12 00:11:47;;;;;;;8.90;4.60;;;-0.30;99.90;;;;;;7806055;28;20624;-90
2023/03/12 00:15:37;;;;;;;7.07;3.87;;;-0.70;99.90;;;;;;7805457;28;20206;-91
2023/03/12 00:19:23;;;;;;;7.73;4.27;;;-0.80;99.90;;;;;;7791605;28;20552;-90
2023/03/12 00:23:09;;;;;;;9.23;4.10;;;-0.80;99.90;;;;;;7774539;28;20211;-90
2023/03/12 00:26:54;;;;;;;7.83;3.47;;;-0.70;99.90;;;;;;7774101;28;20539;-91
2023/03/12 00:30:41;;;;;;;6.13;3.60;;;-0.70;99.90;;;;;;7774851;28;20553;-91
2023/03/12 00:34:26;;;;;;;8.33;3.83;;;-0.80;99.90;;;;;;7774338;28;20257;-90
2023/03/12 00:38:12;;;;;;;6.57;3.70;;;-0.90;99.90;;;;;;7775083;28;20179;-91
2023/03/12 00:41:58;;;;;;;8.03;4.10;;;-0.90;99.90;;;;;;7776093;28;20191;-91
2023/03/12 00:45:44;;;;;;;9.87;3.87;;;-0.90;99.90;;;;;;7774830;28;20497;-90
2023/03/12 00:49:30;;;;;;;5.50;3.47;;;-0.90;99.90;;;;;;7774548;28;20187;-90
2023/03/12 00:53:15;;;;;;;8.80;4.13;;;-0.90;99.90;;;;;;7796301;28;20297;-91
2023/03/12 00:57:01;;;;;;;8.10;3.43;;;-0.90;99.90;;;;;;7805299;28;20178;-90
2023/03/12 01:00:46;;;;;;;9.07;3.60;;;-0.90;99.90;;;;;;7815093;28;20194;-90
2023/03/12 01:04:32;;;;;;;9.13;4.50;;;-0.70;99.90;;;;;;7804361;28;20252;-91
2023/03/12 01:08:18;;;;;;;12.63;4.73;;;-0.80;99.90;;;;;;7805462;28;20174;-90
2023/03/12 01:12:05;;;;;;;9.40;4.30;;;-0.90;99.90;;;;;;7804576;28;20596;-90
2023/03/12 01:15:50;;;;;;;10.13;5.10;;;-0.90;99.90;;;;;;7804547;28;20308;-90
2023/03/12 01:19:36;;;;;;;10.77;6.83;;;-0.80;99.90;;;;;;7805578;28;20194;-91
2023/03/12 01:23:22;;;;;;;9.93;4.87;;;-0.90;99.90;;;;;;7804343;28;20202;-90
2023/03/12 01:27:07;;;;;;;5.30;3.37;;;-1.00;99.90;;;;;;7804518;28;20178;-91
2023/03/12 01:30:53;;;;;;;4.47;2.67;;;-0.90;99.90;;;;;;7789914;28;20568;-90
2023/03/12 01:34:39;;;;;;;5.97;2.50;;;-1.00;99.90;;;;;;7792460;28;20206;-92
2023/03/12 01:38:24;;;;;;;3.90;2.60;;;-1.00;99.90;;;;;;7797850;28;20184;-91
2023/03/12 01:42:10;;;;;;;5.90;2.30;;;-1.00;99.90;;;;;;7799910;28;20610;-91
2023/03/12 01:45:58;;;;;;;9.27;2.80;;;-1.00;99.90;;;;;;7795030;28;20273;-91
2023/03/12 01:49:45;;;;;;;8.93;2.30;;;-1.00;99.90;;;;;;7788414;28;20270;-91
2023/03/12 01:53:32;;;;;;;3.50;2.20;;;-1.00;99.90;;;;;;7810370;28;20211;-91
2023/03/12 01:57:22;;;;;;;6.63;2.27;;;-1.00;99.90;;;;;;7809486;28;20175;-90
2023/03/12 02:01:07;;;;;;;6.23;2.47;;;-1.10;99.90;;;;;;7795110;28;20175;-91
2023/03/12 02:05:06;;;;;;;5.17;2.27;;;-1.10;99.90;;;;;;7778245;28;20253;-91
2023/03/12 02:08:52;;;;;;;5.47;2.57;;;-1.10;99.90;;;;;;7778044;28;20171;-90
2023/03/12 02:12:37;;;;;;;5.77;2.20;;;-1.20;99.90;;;;;;7791251;28;20266;-91
2023/03/12 02:16:23;;;;;;;3.83;1.93;;;-1.20;99.90;;;;;;7777578;28;20210;-91
2023/03/12 02:20:24;;;;;;;4.03;2.50;;;-1.20;99.90;;;;;;7778728;28;20241;-90
2023/03/12 02:24:29;;;;;;;3.80;1.93;;;-1.20;99.90;;;;;;7778217;28;20397;-92
2023/03/12 02:28:18;;;;;;;4.47;2.63;;;-1.20;99.90;;;;;;7778614;28;20220;-91
2023/03/12 02:32:06;;;;;;;3.70;2.00;;;-1.20;99.90;;;;;;7801230;28;20190;-91
2023/03/12 02:35:53;;;;;;;4.90;2.07;;;-1.20;99.90;;;;;;7803819;28;20232;-91
2023/03/12 02:39:41;;;;;;;4.80;1.97;;;-1.20;99.90;;;;;;7802161;28;20874;-91
2023/03/12 02:43:27;;;;;;;6.03;2.17;;;-1.20;99.90;;;;;;7796264;28;20207;-91
2023/03/12 02:47:12;;;;;;;5.57;2.20;;;-1.30;99.90;;;;;;7814181;28;20469;-92
2023/03/12 02:50:58;;;;;;;4.93;2.13;;;-1.20;99.90;;;;;;7786843;28;20198;-91
2023/03/12 02:54:44;;;;;;;5.50;2.30;;;-1.10;99.90;;;;;;7806821;28;20245;-91
2023/03/12 02:58:29;;;;;;;4.97;2.03;;;-1.20;99.90;;;;;;7794576;28;20184;-91
2023/03/12 03:02:15;;;;;;;8.33;2.10;;;-1.20;99.90;;;;;;7821939;28;20197;-91
2023/03/12 03:06:01;;;;;;;4.17;2.13;;;-1.20;99.90;;;;;;7807073;28;20202;-91
2023/03/12 03:09:46;;;;;;;5.47;1.77;;;-1.30;99.90;;;;;;7822275;28;20182;-92
2023/03/12 03:13:33;;;;;;;4.60;2.00;;;-1.20;99.90;;;;;;7805940;28;20671;-92
2023/03/12 03:17:18;;;;;;;3.40;1.80;;;-1.30;99.90;;;;;;7803232;28;20202;-91
2023/03/12 03:21:06;;;;;;;8.93;1.87;;;-1.30;99.90;;;;;;7796229;28;20228;-92
2023/03/12 03:24:52;;;;;;;7.67;2.17;;;-1.30;99.90;;;;;;7791617;28;20317;-92
2023/03/12 03:28:38;;;;;;;3.67;1.80;;;-1.30;99.90;;;;;;7806923;28;20209;-92
2023/03/12 03:32:24;;;;;;;2.73;1.73;;;-1.30;99.90;;;;;;7798997;28;20195;-93
2023/03/12 03:36:12;;;;;;;6.40;2.00;;;-1.30;99.90;;;;;;7828938;28;20217;-91
2023/03/12 03:39:58;;;;;;;4.47;2.27;;;-1.40;99.90;;;;;;7818680;28;20194;-92
2023/03/12 03:43:44;;;;;;;3.77;1.83;;;-1.30;99.90;;;;;;7803886;28;20199;-91
2023/03/12 03:47:30;;;;;;;6.00;1.70;;;-1.40;99.90;;;;;;7800760;28;20194;-93
2023/03/12 03:51:16;;;;;;;8.60;1.77;;;-1.40;99.90;;;;;;7795007;28;20174;-91
2023/03/12 03:55:02;;;;;;;5.13;1.80;;;-1.50;99.90;;;;;;7791005;28;20715;-92
2023/03/12 03:58:47;;;;;;;5.03;1.80;;;-1.60;99.90;;;;;;7800616;28;20573;-91
2023/03/12 04:02:33;;;;;;;2.13;1.77;;;-1.60;99.90;;;;;;7800007;28;20183;-92
2023/03/12 04:06:19;;;;;;;3.60;1.53;;;-1.60;99.90;;;;;;7795177;28;20653;-92
2023/03/12 04:10:05;;;;;;;3.60;1.90;;;-1.60;99.90;;;;;;7792663;28;20586;-91
2023/03/12 04:13:51;;;;;;;8.70;1.90;;;-1.60;99.90;;;;;;7778741;28;20297;-92
2023/03/12 04:17:37;;;;;;;5.17;1.80;;;-1.60;99.90;;;;;;7787018;28;20206;-92
2023/03/12 04:21:22;;;;;;;2.37;1.40;;;-1.60;99.90;;;;;;7783266;28;20195;-92
2023/03/12 04:25:08;;;;;;;2.67;1.57;;;-1.60;99.90;;;;;;7798864;28;20288;-92
2023/03/12 04:28:54;;;;;;;3.70;2.17;;;-1.70;99.90;;;;;;7785930;28;20187;-92
2023/03/12 04:32:39;;;;;;;7.13;1.63;;;-1.60;99.90;;;;;;7831860;28;20214;-92
2023/03/12 04:36:25;;;;;;;2.33;1.63;;;-1.60;99.90;;;;;;7802276;28;20214;-92
2023/03/12 04:40:12;;;;;;;2.20;1.47;;;-1.70;99.90;;;;;;7794702;28;20262;-92
2023/03/12 04:43:57;;;;;;;2.63;1.47;;;-1.60;99.90;;;;;;7791558;28;20214;-92
2023/03/12 04:47:43;;;;;;;3.93;1.80;;;-1.60;99.90;;;;;;7798759;28;20185;-92
2023/03/12 04:51:30;;;;;;;8.23;2.00;;;-1.60;99.90;;;;;;7786230;28;20245;-92
2023/03/12 04:55:16;;;;;;;3.67;1.60;;;-1.70;99.90;;;;;;7800308;28;20232;-92
2023/03/12 04:59:01;;;;;;;2.87;1.50;;;-1.70;99.90;;;;;;7788979;28;20180;-92
2023/03/12 05:02:47;;;;;;;2.43;1.60;;;-1.80;99.90;;;;;;7793847;28;20213;-92
2023/03/12 05:06:33;;;;;;;3.40;1.40;;;-1.80;99.90;;;;;;7790808;28;20257;-91
2023/03/12 05:10:19;;;;;;;4.57;1.77;;;-1.70;99.90;;;;;;7799960;28;20195;-92
2023/03/12 05:14:05;;;;;;;4.30;1.33;;;-1.70;99.90;;;;;;7796041;28;20225;-91
2023/03/12 05:17:51;;;;;;;2.53;1.30;;;-1.70;99.90;;;;;;7809712;28;20324;-92
2023/03/12 05:21:38;;;;;;;2.30;1.70;;;-1.90;99.90;;;;;;7805795;28;20192;-92
2023/03/12 05:25:23;;;;;;;4.80;1.30;;;-1.80;99.90;;;;;;7795099;28;20218;-92
2023/03/12 05:29:09;;;;;;;3.70;1.70;;;-1.80;99.90;;;;;;7800018;28;20241;-91
2023/03/12 05:32:55;;;;;;;5.00;1.83;;;-1.80;99.90;;;;;;7815758;28;20253;-92
2023/03/12 05:36:40;;;;;;;3.97;1.53;;;-1.80;99.90;;;;;;7828540;28;20186;-91
2023/03/12 05:40:26;;;;;;;4.70;1.30;;;-1.80;99.90;;;;;;7830045;28;21566;-93
2023/03/12 05:44:14;;;;;;;3.37;1.40;;;-1.80;99.90;;;;;;7806762;28;20210;-93
2023/03/12 05:48:00;;;;;;;7.33;1.53;;;-1.80;99.90;;;;;;7797953;28;20285;-89
2023/03/12 05:51:49;;;;;;;3.40;1.73;;;-1.80;99.90;;;;;;7799189;28;20195;-82
2023/03/12 05:55:36;;;;;;;5.00;1.47;;;-1.80;99.90;;;;;;7793074;28;20286;-89
2023/03/12 05:59:22;;;;;;;5.03;1.47;;;-1.80;99.90;;;;;;7809769;28;20206;-92
2023/03/12 06:03:08;;;;;;;2.73;1.50;;;-1.80;99.90;;;;;;7808995;28;20239;-92
2023/03/12 06:06:54;;;;;;;6.93;1.80;;;-1.70;99.90;;;;;;7786024;28;20190;-92
2023/03/12 06:10:40;;;;;;;9.63;3.20;;;-1.70;99.90;;;;;;7779129;28;20281;-92
2023/03/12 06:14:26;;;;;;;8.93;2.70;;;-1.70;99.90;;;;;;7781417;28;20221;-91
2023/03/12 06:18:21;;;;;;;3.33;1.50;;;-1.70;99.90;;;;;;7779550;28;20234;-91
2023/03/12 06:22:07;;;;;;;5.37;1.40;;;-1.60;99.90;;;;;;7793449;28;20756;-91
2023/03/12 06:25:53;;;;;;;2.03;1.30;;;-1.60;99.90;;;;;;7813542;28;20280;-91
2023/03/12 06:29:39;;;;;;;2.27;1.60;;;-1.60;99.90;;;;;;7794602;28;20331;-91
2023/03/12 06:33:24;;;;;;;1.40;1.30;;;-1.50;99.90;;;;;;7796561;28;20598;-92
2023/03/12 06:37:11;;;;;;;6.83;2.63;;;-1.40;99.90;;;;;;7799664;28;20273;-92
2023/03/12 06:40:59;;;;;;;9.60;4.90;;;-1.40;99.90;;;;;;7791962;28;20710;-91
2023/03/12 06:44:44;;;;;;;4.50;2.97;;;-1.30;99.90;;;;;;7791147;28;20752;-91
2023/03/12 06:48:32;;;;;;;2.73;1.90;;;-1.30;99.90;;;;;;7801211;28;20559;-91
2023/03/12 06:52:18;;;;;;;3.93;2.27;;;-1.30;99.90;;;;;;7802184;28;20193;-92
2023/03/12 06:56:04;;;;;;;3.20;1.13;;;-1.20;99.90;;;;;;7801497;28;20215;-92
2023/03/12 06:59:50;;;;;;;4.57;1.37;;;-1.10;99.90;;;;;;7790272;28;20194;-91
2023/03/12 07:03:36;;;;;;;3.77;1.60;;;-0.90;99.90;;;;;;7801080;28;20206;-91
2023/03/12 07:07:21;;;;;;;2.60;1.50;;;-1.00;99.90;;;;;;7806675;28;20213;-91
2023/03/12 07:11:07;;;;;;;4.30;1.40;;;-0.90;99.90;;;;;;7804947;28;20189;-92
2023/03/12 07:14:53;;;;;;;6.07;1.77;;;-0.80;99.90;;;;;;7794759;28;20214;-91
2023/03/12 07:18:39;;;;;;;4.47;1.87;;;-0.80;99.90;;;;;;7793275;28;20962;-92
2023/03/12 07:22:24;;;;;;;7.33;2.20;;;-0.70;99.90;;;;;;7797885;28;20266;-91
2023/03/12 07:26:10;;;;;;;4.00;1.93;;;-0.60;99.90;;;;;;7796834;28;20193;-92
2023/03/12 07:29:56;;;;;;;3.93;2.17;;;-0.60;99.90;;;;;;7791233;28;20191;-92
2023/03/12 07:33:41;;;;;;;5.80;2.37;;;-0.50;99.90;;;;;;7784462;28;20210;-92
2023/03/12 07:37:28;;;;;;;3.30;1.70;;;-0.50;99.90;;;;;;7798109;28;20167;-91
2023/03/12 07:41:13;;;;;;;3.17;1.70;;;-0.40;99.90;;;;;;7834232;28;20194;-91
2023/03/12 07:44:59;;;;;;;9.47;2.27;;;-0.30;99.90;;;;;;7797482;28;20639;-91
2023/03/12 07:48:47;;;;;;;5.93;1.67;;;-0.20;99.90;;;;;;7802343;28;20668;-90
2023/03/12 07:52:32;;;;;;;4.27;2.03;;;0.20;99.90;;;;;;7803118;28;20210;-91
2023/03/12 07:56:18;;;;;;;4.07;1.60;;;0.50;99.90;;;;;;7786807;28;20238;-90
2023/03/12 08:00:09;;;;;;;4.00;1.43;;;0.80;99.90;;;;;;7799610;28;20213;-92
2023/03/12 08:03:58;;;;;;;2.60;1.47;;;1.10;99.90;;;;;;7802654;28;20222;-90
2023/03/12 08:07:44;;;;;;;3.77;1.87;;;1.40;99.90;;;;;;7792202;28;20187;-91
2023/03/12 08:11:32;;;;;;;3.63;2.07;;;1.50;99.90;;;;;;7793048;28;20241;-91
2023/03/12 08:15:19;;;;;;;5.50;2.20;;;1.60;99.90;;;;;;7801827;28;20210;-91
2023/03/12 08:19:04;;;;;;;5.70;2.77;;;1.70;99.90;;;;;;7801045;28;20210;-89
2023/03/12 08:22:51;;;;;;;3.90;1.90;;;1.70;99.90;;;;;;7799379;28;20791;-90
2023/03/12 08:26:41;;;;;;;3.17;1.60;;;1.90;99.90;;;;;;7798080;28;20181;-89
2023/03/12 08:30:26;;;;;;;2.30;1.30;;;2.00;99.90;;;;;;7782609;28;20175;-90
2023/03/12 08:34:12;;;;;;;3.17;1.67;;;2.10;99.90;;;;;;7814164;28;20237;-91
2023/03/12 08:37:59;;;;;;;5.90;2.47;;;2.20;99.90;;;;;;7803374;28;20641;-90
2023/03/12 08:41:45;;;;;;;5.07;1.90;;;2.20;99.90;;;;;;7800484;28;20186;-89
2023/03/12 08:45:35;;;;;;;5.07;2.10;;;2.20;99.90;;;;;;7803282;28;20291;-90
2023/03/12 08:49:22;;;;;;;5.13;2.97;;;2.30;99.90;;;;;;7802625;28;20633;-91
2023/03/12 08:53:08;;;;;;;5.07;2.50;;;2.20;99.90;;;;;;7806046;28;20207;-91
2023/03/12 08:56:54;;;;;;;4.33;2.57;;;2.40;99.90;;;;;;7799192;28;20226;-90
2023/03/12 09:00:39;;;;;;;6.83;2.20;;;2.50;99.90;;;;;;7809303;28;20183;-90
2023/03/12 09:04:25;;;;;;;3.03;1.80;;;2.60;99.90;;;;;;7797515;28;20210;-90
2023/03/12 09:08:11;;;;;;;5.97;2.10;;;2.50;99.90;;;;;;7798339;28;20194;-91
2023/03/12 09:11:56;;;;;;;2.10;1.60;;;2.50;99.70;;;;;;7812370;28;20225;-90
2023/03/12 09:15:43;;;;;;;2.47;1.90;;;2.50;99.90;;;;;;7801761;28;20298;-89
2023/03/12 09:19:29;;;;;;;4.03;2.07;;;2.50;99.90;;;;;;7805631;28;20191;-90
2023/03/12 09:23:14;;;;;;;3.13;1.97;;;2.60;99.90;;;;;;7824338;28;20202;-90
2023/03/12 09:27:01;;;;;;;4.50;1.63;;;2.70;99.90;;;;;;7807123;28;20188;-90
2023/03/12 09:30:48;;;;;;;3.00;1.60;;;2.70;99.90;;;;;;7810066;28;20179;-87
2023/03/12 09:34:33;;;;;;;5.47;2.60;;;2.60;99.90;;;;;;7803797;28;20671;-90
2023/03/12 09:38:19;;;;;;;7.97;3.60;;;2.80;99.90;;;;;;7800882;28;20650;-87
2023/03/12 09:42:09;;;;;;;6.07;3.20;;;2.80;99.90;;;;;;7819053;28;20653;-89
2023/03/12 09:45:56;;;;;;;5.57;2.17;;;3.00;99.90;;;;;;7792893;28;20239;-90
2023/03/12 09:49:53;;;;;;;8.40;3.10;;;3.00;99.00;;;;;;7793274;28;20197;-90
2023/03/12 09:53:47;;;;;;;9.17;3.10;;;2.90;99.10;;;;;;7793517;28;20229;-89
2023/03/12 09:57:34;;;;;;;5.53;2.57;;;3.10;99.90;;;;;;7800873;28;20179;-90
2023/03/12 10:01:35;;;;;;;3.13;1.57;;;3.20;97.80;;;;;;7795287;28;20179;-92
2023/03/12 10:05:56;;;;;;;76.10;29.87;;;3.20;97.30;;;;;;7811769;28;20245;-90
2023/03/12 10:10:13;;;;;;;9.03;4.73;;;3.30;97.70;;;;;;7798295;28;20179;-91
2023/03/12 10:14:17;;;;;;;31.57;14.63;;;3.30;96.40;;;;;;7788644;28;20269;-90
2023/03/12 10:18:43;;;;;;;12.40;5.60;;;3.30;97.00;;;;;;7792615;28;20266;-89
2023/03/12 10:22:44;;;;;;;3.30;1.90;;;3.40;97.60;;;;;;7730594;28;20203;-90
2023/03/12 10:26:40;;;;;;;6.17;2.10;;;3.40;96.60;;;;;;7787809;28;20194;-90
2023/03/12 10:30:29;;;;;;;5.57;2.20;;;3.50;95.40;;;;;;7792985;28;20538;-88
2023/03/12 10:34:22;;;;;;;3.40;1.50;;;3.60;94.10;;;;;;7801615;28;20207;-90
2023/03/12 10:38:19;;;;;;;8.87;2.27;;;3.50;93.20;;;;;;7797288;28;20193;-87
2023/03/12 10:42:27;;;;;;;3.57;1.53;;;3.70;94.80;;;;;;7793859;28;20693;-90
2023/03/12 10:46:35;;;;;;;4.37;1.07;;;3.70;94.40;;;;;;7796426;28;20592;-89
2023/03/12 10:50:27;;;;;;;1.40;1.00;;;3.70;93.00;;;;;;7793465;28;20217;-89
2023/03/12 10:54:29;;;;;;;2.93;1.00;;;3.70;92.70;;;;;;7803506;28;20195;-89
2023/03/12 10:58:23;;;;;;;3.70;1.57;;;3.90;93.80;;;;;;7804874;28;20183;-90
2023/03/12 11:02:42;;;;;;;61.27;31.13;;;4.00;93.50;;;;;;7801067;28;20404;-90
2023/03/12 11:06:29;;;;;;;2.37;1.80;;;4.00;91.70;;;;;;7777805;28;20724;-86
2023/03/12 11:10:17;;;;;;;3.27;1.33;;;4.20;92.00;;;;;;7780075;28;20254;-89
2023/03/12 11:14:25;;;;;;;4.03;1.50;;;4.20;94.10;;;;;;7805371;28;20214;-88
2023/03/12 11:18:25;;;;;;;2.17;1.40;;;4.30;96.60;;;;;;7806027;28;20194;-91
2023/03/12 11:22:10;;;;;;;2.67;1.20;;;4.30;97.50;;;;;;7790312;28;20660;-89
2023/03/12 11:26:02;;;;;;;3.33;1.53;;;4.30;98.10;;;;;;7805324;28;20590;-88
2023/03/12 11:29:49;;;;;;;3.20;0.90;;;4.30;98.40;;;;;;7809286;28;20189;-88
2023/03/12 11:33:35;;;;;;;3.87;1.73;;;4.20;93.10;;;;;;7808935;28;20214;-89
2023/03/12 11:37:51;;;;;;;3.40;1.37;;;4.30;90.40;;;;;;7812465;28;20194;-86
2023/03/12 11:41:55;;;;;;;2.40;1.17;;;4.30;90.10;;;;;;7823768;28;20191;-88
2023/03/12 11:46:10;;;;;;;2.97;1.70;;;4.30;90.50;;;;;;7784467;28;20588;-88
2023/03/12 11:50:21;;;;;;;5.40;1.33;;;4.30;89.50;;;;;;7778809;28;20183;-91
2023/03/12 11:54:17;;;;;;;1.90;1.10;;;4.40;90.70;;;;;;7786585;28;20605;-88
2023/03/12 11:58:33;;;;;;;1.87;1.27;;;4.40;90.00;;;;;;7803792;28;20178;-90
2023/03/12 12:02:37;;;;;;;3.93;1.47;;;4.40;90.90;;;;;;7805182;28;20562;-90
2023/03/12 12:06:49;;;;;;;2.50;1.50;;;4.50;91.80;;;;;;7792672;28;20191;-90
2023/03/12 12:10:57;;;;;;;2.77;1.80;;;4.50;92.80;;;;;;7785674;28;20541;-89
2023/03/12 12:14:42;;;;;;;4.60;1.77;;;4.60;92.90;;;;;;7799353;28;20211;-90
2023/03/12 12:18:28;;;;;;;2.33;1.70;;;4.60;91.40;;;;;;7806530;28;20704;-88
2023/03/12 12:22:29;;;;;;;5.23;2.03;;;4.60;92.50;;;;;;7789792;28;20207;-90
2023/03/12 12:26:22;;;;;;;4.77;1.90;;;4.50;93.00;;;;;;7773509;28;20202;-89
2023/03/12 12:30:16;;;;;;;5.97;1.83;;;4.40;93.60;;;;;;7800585;28;20603;-88
2023/03/12 12:34:11;;;;;;;4.10;1.83;;;4.40;94.90;;;;;;7799161;28;20234;-89
2023/03/12 12:38:19;;;;;;;5.33;2.30;;;4.50;94.80;;;;;;7801323;28;20672;-89
2023/03/12 12:42:15;;;;;;;5.17;2.17;;;4.60;96.40;;;;;;7800930;28;20223;-90
2023/03/12 12:46:13;;;;;;;5.37;2.20;;;4.90;97.40;;;;;;7795613;28;20221;-87
2023/03/12 12:50:00;;;;;;;3.47;2.07;;;5.00;96.60;;;;;;7811450;28;20185;-90
2023/03/12 12:53:57;;;;;;;6.43;2.40;;;4.90;96.70;;;;;;7797036;28;20211;-89
2023/03/12 12:58:12;;;;;;;6.67;2.73;;;4.90;97.60;;;;;;7807393;28;20600;-85
2023/03/12 13:01:59;;;;;;;5.50;2.47;;;4.90;97.10;;;;;;7798460;28;20190;-86
2023/03/12 13:05:53;;;;;;;7.60;3.10;;;4.90;97.60;;;;;;7805179;28;20218;-85
2023/03/12 13:09:42;;;;;;;5.67;2.60;;;5.00;98.00;;;;;;7809151;28;20262;-87
2023/03/12 13:13:29;;;;;;;5.00;2.83;;;4.90;98.50;;;;;;7808371;28;20237;-87
2023/03/12 13:17:26;;;;;;;8.50;3.13;;;5.00;96.60;;;;;;7802273;28;20187;-88
2023/03/12 13:21:23;;;;;;;5.63;2.77;;;5.00;98.30;;;;;;7808836;28;20198;-86
2023/03/12 13:25:33;;;;;;;4.73;2.77;;;5.00;98.20;;;;;;7794336;28;20748;-87
2023/03/12 13:29:28;;;;;;;6.53;2.47;;;5.00;98.60;;;;;;7807416;28;20182;-88
2023/03/12 13:33:17;;;;;;;4.97;2.67;;;5.00;98.80;;;;;;7785972;28;20213;-89
2023/03/12 13:37:17;;;;;;;6.10;2.77;;;5.00;98.50;;;;;;7802143;28;20187;-85
2023/03/12 13:41:05;;;;;;;6.43;2.77;;;5.00;99.60;;;;;;7804080;28;20249;-91
2023/03/12 13:44:52;;;;;;;6.00;3.03;;;5.10;99.90;;;;;;7786936;28;22408;-84
2023/03/12 13:48:47;;;;;;;4.83;2.50;;;5.10;98.40;;;;;;7791592;28;20188;-84
2023/03/12 13:52:40;;;;;;;7.90;3.00;;;5.10;99.20;;;;;;7798978;28;20680;-83
2023/03/12 13:56:29;;;;;;;3.60;2.33;;;5.10;99.80;;;;;;7822131;28;20206;-90
2023/03/12 14:00:15;;;;;;;5.30;2.70;;;5.00;99.40;;;;;;7803235;28;20182;-89
2023/03/12 14:04:19;;;;;;;6.30;2.63;;;5.10;98.20;;;;;;7810019;28;20202;-89
2023/03/12 14:08:10;;;;;;;7.73;2.50;;;5.10;98.10;;;;;;7807287;28;20187;-89
2023/03/12 14:12:21;;;;;;;3.73;2.63;;;5.20;96.00;;;;;;7792956;28;20183;-83
2023/03/12 14:16:27;;;;;;;7.63;2.60;;;5.20;96.60;;;;;;7809173;28;20207;-88
2023/03/12 14:20:20;;;;;;;7.10;2.60;;;5.20;97.10;;;;;;7818049;28;20225;-92
2023/03/12 14:24:07;;;;;;;5.67;2.50;;;5.10;95.70;;;;;;7812680;28;20202;-92
2023/03/12 14:27:53;;;;;;;4.10;2.30;;;5.10;95.50;;;;;;7810510;28;20185;-93
2023/03/12 14:31:39;;;;;;;3.93;2.20;;;5.10;94.70;;;;;;7815558;28;20174;-92
2023/03/12 14:35:36;;;;;;;4.90;2.37;;;5.00;94.40;;;;;;7810267;28;20238;-92
2023/03/12 14:39:31;;;;;;;5.73;1.60;;;5.00;93.40;;;;;;7809858;28;20634;-92
2023/03/12 14:43:20;;;;;;;3.17;2.10;;;4.80;94.60;;;;;;7795419;28;20281;-93
2023/03/12 14:47:11;;;;;;;6.83;2.70;;;4.80;95.90;;;;;;7778349;28;20179;-92
2023/03/12 14:50:58;;;;;;;6.67;2.37;;;4.80;97.60;;;;;;7779053;28;20329;-92
2023/03/12 14:54:53;;;;;;;4.83;2.00;;;4.70;99.90;;;;;;7783398;28;20210;-92
2023/03/12 14:58:44;;;;;;;3.87;2.07;;;4.70;99.90;;;;;;7778920;28;20233;-92
2023/03/12 15:02:30;;;;;;;4.10;1.83;;;4.70;99.90;;;;;;7778366;28;20671;-92
2023/03/12 15:06:38;;;;;;;3.57;2.40;;;4.60;99.90;;;;;;7778008;28;20522;-91
2023/03/12 15:10:26;;;;;;;3.77;2.77;;;4.60;99.90;;;;;;7794186;28;20204;-91
2023/03/12 15:14:14;;;;;;;4.20;2.40;;;4.60;99.90;;;;;;7794142;28;20225;-92
2023/03/12 15:18:03;;;;;;;6.53;2.87;;;4.50;99.90;;;;;;7777881;28;20182;-91
2023/03/12 15:21:49;;;;;;;7.83;3.30;;;4.40;99.90;;;;;;7806933;28;20190;-92
2023/03/12 15:25:35;;;;;;;10.73;3.33;;;4.30;99.90;;;;;;7808101;28;20611;-92
2023/03/12 15:29:29;;;;;;;8.70;4.10;;;4.50;99.90;;;;;;7799604;28;20213;-92
2023/03/12 15:33:14;;;;;;;11.60;5.43;;;4.30;99.90;;;;;;7807297;28;20225;-92
2023/03/12 15:37:03;;;;;;;10.30;4.73;;;4.30;99.90;;;;;;7832414;28;20281;-91
2023/03/12 15:40:52;;;;;;;9.07;4.27;;;4.30;99.90;;;;;;7821920;28;20645;-92
2023/03/12 15:44:50;;;;;;;7.47;4.00;;;4.20;99.90;;;;;;7793620;28;20246;-93
2023/03/12 15:48:40;;;;;;;8.37;4.00;;;4.30;99.90;;;;;;7791114;28;20197;-84
2023/03/12 15:52:31;;;;;;;9.63;4.17;;;4.60;99.90;;;;;;7806144;28;20187;-92
2023/03/12 15:56:17;;;;;;;7.97;4.40;;;5.00;99.90;;;;;;7809615;28;20284;-92
2023/03/12 16:00:10;;;;;;;7.73;4.33;;;5.30;99.90;;;;;;7822156;28;20195;-92
2023/03/12 16:03:57;;;;;;;6.63;3.40;;;5.50;99.90;;;;;;7815422;28;20241;-92
2023/03/12 16:07:43;;;;;;;6.40;3.83;;;5.60;99.90;;;;;;7809445;28;20178;-92
2023/03/12 16:11:34;;;;;;;5.47;3.93;;;5.90;99.90;;;;;;7809016;28;20821;-92
2023/03/12 16:15:36;;;;;;;6.17;3.63;;;5.90;99.90;;;;;;7808447;28;20742;-93
2023/03/12 16:19:27;;;;;;;7.37;4.10;;;5.90;99.90;;;;;;7808559;28;20174;-92
2023/03/12 16:23:13;;;;;;;5.90;3.53;;;5.80;99.90;;;;;;7808955;28;20210;-91
2023/03/12 16:27:15;;;;;;;6.23;3.23;;;6.00;99.90;;;;;;7808860;28;20273;-93
2023/03/12 16:31:01;;;;;;;8.60;3.73;;;6.00;99.90;;;;;;7808507;28;20190;-92
2023/03/12 16:34:46;;;;;;;5.73;4.20;;;6.10;99.90;;;;;;7807729;28;20211;-93
2023/03/12 16:38:32;;;;;;;5.80;3.70;;;6.10;99.90;;;;;;7811434;28;20185;-88
2023/03/12 16:42:19;;;;;;;8.40;4.07;;;6.00;99.90;;;;;;7789443;28;20270;-89
2023/03/12 16:46:08;;;;;;;7.73;3.73;;;6.00;99.90;;;;;;7808046;28;20179;-89
2023/03/12 16:49:54;;;;;;;6.20;4.07;;;6.00;99.90;;;;;;7797664;28;20555;-90
2023/03/12 16:53:39;;;;;;;6.23;3.53;;;5.90;99.90;;;;;;7797452;28;20210;-90
2023/03/12 16:57:28;;;;;;;6.20;3.60;;;5.90;99.90;;;;;;7794314;28;20183;-93
2023/03/12 17:01:30;;;;;;;6.20;3.30;;;6.00;99.90;;;;;;7788746;28;20206;-92
2023/03/12 17:05:17;;;;;;;5.73;3.20;;;5.90;99.90;;;;;;7782332;28;20708;-94
2023/03/12 17:09:03;;;;;;;4.23;3.00;;;5.90;99.90;;;;;;7779406;28;20191;-92
2023/03/12 17:12:49;;;;;;;8.30;4.10;;;5.90;99.90;;;;;;7782545;28;20206;-92
2023/03/12 17:16:48;;;;;;;5.50;3.20;;;5.80;99.90;;;;;;7782696;28;20207;-93
2023/03/12 17:20:34;;;;;;;6.10;3.30;;;5.80;99.90;;;;;;7783345;28;20668;-92
2023/03/12 17:24:26;;;;;;;6.97;5.37;;;5.70;99.90;;;;;;7782387;28;20226;-92
2023/03/12 17:28:14;;;;;;;4.97;3.10;;;5.60;99.90;;;;;;7782679;28;20164;-94
2023/03/12 17:31:59;;;;;;;10.60;5.63;;;5.60;99.90;;;;;;7783760;28;20802;-92
2023/03/12 17:35:45;;;;;;;5.73;3.93;;;5.60;99.90;;;;;;7800078;28;20203;-94
2023/03/12 17:39:32;;;;;;;7.03;4.30;;;5.40;99.90;;;;;;7802051;28;20596;-89
2023/03/12 17:43:19;;;;;;;11.17;5.27;;;5.50;99.90;;;;;;7799232;28;20249;-91
2023/03/12 17:47:05;;;;;;;5.53;3.47;;;5.40;99.90;;;;;;7794162;28;20642;-92
2023/03/12 17:50:50;;;;;;;3.50;2.70;;;5.40;99.90;;;;;;7796302;28;20570;-92
2023/03/12 17:54:36;;;;;;;3.97;2.33;;;5.30;99.90;;;;;;7796742;28;20293;-92
2023/03/12 17:58:23;;;;;;;7.27;2.93;;;5.20;99.90;;;;;;7797066;28;20792;-91
2023/03/12 18:02:15;;;;;;;3.37;2.87;;;5.20;99.90;;;;;;7812609;28;20244;-91
2023/03/12 18:06:04;;;;;;;4.53;2.70;;;5.20;99.90;;;;;;7811928;28;20206;-91
2023/03/12 18:09:50;;;;;;;6.60;3.33;;;5.20;99.90;;;;;;7816753;28;20179;-91
2023/03/12 18:13:36;;;;;;;4.97;3.60;;;5.20;99.90;;;;;;7813464;28;20234;-91
2023/03/12 18:17:21;;;;;;;8.13;4.07;;;5.20;99.90;;;;;;7811903;28;20179;-93
2023/03/12 18:21:07;;;;;;;6.63;3.43;;;5.20;99.90;;;;;;7811707;28;20194;-91
2023/03/12 18:24:53;;;;;;;6.37;4.00;;;5.30;99.90;;;;;;7812220;28;20603;-91
2023/03/12 18:28:38;;;;;;;4.30;3.20;;;5.20;99.90;;;;;;7815687;28;20190;-93
2023/03/12 18:32:24;;;;;;;3.27;2.73;;;5.30;99.90;;;;;;7815917;28;20179;-91
2023/03/12 18:36:26;;;;;;;6.67;3.10;;;5.40;99.90;;;;;;7811963;28;20210;-93
2023/03/12 18:40:34;;;;;;;2.40;2.20;;;5.30;99.90;;;;;;7810986;28;20166;-93
2023/03/12 18:44:20;;;;;;;5.40;2.40;;;5.40;99.90;;;;;;7810675;28;20225;-93
2023/03/12 18:48:13;;;;;;;4.03;2.20;;;5.40;99.90;;;;;;7810897;28;20706;-92
2023/03/12 18:51:59;;;;;;;3.17;2.20;;;5.40;99.90;;;;;;7810694;28;20166;-92
2023/03/12 18:55:58;;;;;;;3.17;1.77;;;5.40;99.90;;;;;;7810311;28;20213;-92
2023/03/12 18:59:50;;;;;;;2.33;1.87;;;5.50;99.90;;;;;;7810549;28;20782;-92
2023/03/12 19:03:40;;;;;;;3.20;2.30;;;5.50;99.90;;;;;;7809852;28;20238;-93
2023/03/12 19:07:33;;;;;;;4.07;3.00;;;5.50;99.90;;;;;;7810363;28;20314;-92
2023/03/12 19:11:30;;;;;;;4.93;2.80;;;5.60;99.90;;;;;;7810433;28;20185;-93
2023/03/12 19:15:16;;;;;;;4.20;2.70;;;5.50;99.90;;;;;;7810291;28;20206;-92
2023/03/12 19:19:05;;;;;;;5.77;2.73;;;5.60;99.90;;;;;;7813345;28;20174;-92
2023/03/12 19:22:54;;;;;;;6.20;3.27;;;5.50;99.90;;;;;;7810920;28;20229;-92
2023/03/12 19:26:40;;;;;;;6.97;3.30;;;5.60;99.90;;;;;;7811853;28;20181;-92
2023/03/12 19:30:29;;;;;;;4.83;3.33;;;5.60;99.90;;;;;;7813907;28;20179;-92
2023/03/12 19:34:29;;;;;;;3.03;2.70;;;5.80;99.90;;;;;;7824621;28;20206;-94
2023/03/12 19:38:14;;;;;;;4.40;2.73;;;5.70;99.90;;;;;;7841179;28;20182;-92
2023/03/12 19:42:00;;;;;;;3.57;2.40;;;5.60;99.90;;;;;;7820617;28;20214;-92
2023/03/12 19:46:00;;;;;;;5.93;2.80;;;5.80;99.90;;;;;;7809375;28;20195;-92
2023/03/12 19:49:46;;;;;;;5.80;3.17;;;5.80;99.90;;;;;;7810375;28;20159;-93
2023/03/12 19:53:42;;;;;;;3.30;2.17;;;5.70;99.90;;;;;;7810675;28;20222;-93
2023/03/12 19:57:28;;;;;;;4.23;1.73;;;5.80;99.90;;;;;;7809290;28;20167;-93
2023/03/12 20:01:13;;;;;;;2.90;2.23;;;5.90;99.90;;;;;;7809881;28;20175;-93
2023/03/12 20:04:59;;;;;;;2.33;1.80;;;5.90;99.90;;;;;;7809917;28;20206;-92